Lihue, HI (96766)

9:49 AM HST on September 18, 2014 (GMT -1000)
Lihue | Change Station
CLOSE
Current Station
Airport
Location: Lihue,
Elevation: 102 ft
Nearby Weather Stations

Elev 102 ft 21.98 °N, 159.34 °W | Updated 56 minutes ago

Overcast
Overcast
79 °F
Feels Like 79 °F
N
6
Wind Variable Wind from NNW

Today
High -- | Low -- °F
--% Chance of Precip.
Yesterday
High -- | Low -- °F
Precip. -- in
6:25 AM 6:37 PM
Waning Crescent, 25% visible
Pressure 29.97 in
Visibility 10.0 miles
Clouds Few 4200 ft
Mostly Cloudy 5500 ft
Overcast 7000 ft
Dew Point 72 °F
Humidity 79%
Rainfall 0.00 in
Snow Depth Not available.
UV 1 out of 12
Pollen Not available.
Air Quality Not available.
Flu Activity Not available.
METAR PHLI 181853Z 33005KT 10SM FEW042 BKN055 OVC070 26/22 A2998 RMK AO2 RAB22E35 SLP148 P0000 T02610222

More Conditions Fewer Conditions

Pressure 29.97 in
Visibility 10.0 miles
Clouds Few 4200 ft
Mostly Cloudy 5500 ft
Overcast 7000 ft
Dew Point 72 °F
Humidity 79%
Rainfall 0.00 in
Snow Depth Not available.
UV 1 out of 12
Pollen Not available.
Air Quality Not available.
Flu Activity Not available.
METAR PHLI 181853Z 33005KT 10SM FEW042 BKN055 OVC070 26/22 A2998 RMK AO2 RAB22E35 SLP148 P0000 T02610222

More Conditions Fewer Conditions

10-Day Weather Forecast

Almanac

Astronomy

Sep. 18, 2014 Rise Set
Actual Time 6:25 AM HST 6:37 PM HST
Civil Twilight 6:02 AM HST 6:59 PM HST
Nautical Twilight 5:36 AM HST 7:25 PM HST
Astronomical Twilight 5:10 AM HST 7:51 PM HST
Moon 1:54 AM HST 3:11 PM HST
Length of Visible Light 12h 56m
Length of Day
12h 12m
Tomorrow will be 1m 16s shorter.
Waning Crescent, 25% of the Moon is Illuminated
Today
Waning Crescent
Sep 24
New
Oct 1
First Quarter
Oct 8
Full
Oct 15
Last Quarter

Today's Extremes

State Highs State Lows

Community

WunderPhotos

Upload Photos

1,754,421 photos uploaded!

WunderBlogs® & News

By Dr. Jeff Masters
Director of Meteorology, Weather Underground
By Kari Strenfel
Meteorologist, Weather Underground
By Christopher C. Burt
Weather Historian, Weather Underground
September 18, 2014
September 18, 2014
September 18, 2014

Nearby

Snow Depth

Station Depth Elevation
No new snow has been reported.

Earthquake Activity

City Distance Mag. Time & Date
No recent earthquake activity has been reported nearby.
Minimum magnitude displayed is 2.5.

Coastal Water Temperatures

Place Temperature
No Stations Reporting

Nearby Weather Stations